Time;durP1;ratioP1;P1;durP2;ratioP2;P2;SDS_P1;SDS_P2;PMS_P1;PMS_P2;Temp;Humidity;BMP_temperature;BMP_pressure;BME280_temperature;BME280_humidity;BME280_pressure;Samples;Min_cycle;Max_cycle;Signal;HPM_P1;HPM_P2
2023/06/26 00:01:39;;;;;;;8.98;7.35;;;23.60;98.40;;;;;;4952872;28;20125;-88
2023/06/26 00:04:05;;;;;;;8.40;5.53;;;23.70;98.40;;;;;;4967727;28;20077;-89
2023/06/26 00:06:31;;;;;;;7.88;6.20;;;23.60;98.40;;;;;;4951921;28;20039;-88
2023/06/26 00:08:58;;;;;;;7.20;5.47;;;23.60;98.40;;;;;;4951428;28;20134;-87
2023/06/26 00:11:26;;;;;;;7.47;6.43;;;23.60;98.40;;;;;;4950023;28;20043;-89
2023/06/26 00:13:54;;;;;;;8.27;6.82;;;23.50;98.40;;;;;;4951096;28;20035;-88
2023/06/26 00:16:20;;;;;;;8.63;6.72;;;23.60;98.40;;;;;;4950410;28;20461;-88
2023/06/26 00:18:46;;;;;;;9.65;6.90;;;23.60;98.50;;;;;;4967960;28;20126;-87
2023/06/26 00:21:11;;;;;;;11.70;7.55;;;23.50;98.60;;;;;;4968992;28;20034;-86
2023/06/26 00:23:38;;;;;;;9.80;6.88;;;23.50;98.50;;;;;;4951400;28;20047;-87
2023/06/26 00:26:04;;;;;;;8.73;7.07;;;23.50;98.60;;;;;;4968016;28;20031;-88
2023/06/26 00:28:30;;;;;;;9.10;6.80;;;23.50;98.60;;;;;;4964551;28;20043;-86
2023/06/26 00:30:56;;;;;;;8.85;7.20;;;23.50;98.70;;;;;;4946540;28;20053;-88
2023/06/26 00:33:22;;;;;;;9.52;7.30;;;23.50;98.60;;;;;;4968425;28;20045;-88
2023/06/26 00:35:48;;;;;;;8.73;6.68;;;23.40;98.60;;;;;;4936301;28;20676;-87
2023/06/26 00:38:14;;;;;;;9.43;6.72;;;23.40;98.70;;;;;;4967923;28;20255;-88
2023/06/26 00:40:39;;;;;;;9.75;8.10;;;23.40;98.70;;;;;;4967305;28;20430;-88
2023/06/26 00:43:06;;;;;;;10.35;7.85;;;23.40;98.70;;;;;;4954348;28;20042;-88
2023/06/26 00:45:31;;;;;;;8.95;7.10;;;23.30;98.70;;;;;;4938133;28;20035;-87
2023/06/26 00:47:57;;;;;;;11.27;6.90;;;23.30;98.70;;;;;;4965871;28;20502;-88
2023/06/26 00:50:24;;;;;;;9.85;7.70;;;23.20;98.80;;;;;;4946977;29;20043;-88
2023/06/26 00:52:50;;;;;;;9.50;7.43;;;23.20;98.90;;;;;;4937111;28;20042;-87
2023/06/26 00:55:16;;;;;;;9.55;8.02;;;23.20;98.90;;;;;;4955261;28;20073;-88
2023/06/26 00:57:43;;;;;;;9.68;7.90;;;23.20;98.90;;;;;;4954981;28;20042;-89
2023/06/26 01:00:10;;;;;;;9.40;7.55;;;23.10;98.90;;;;;;4953021;28;20065;-88
2023/06/26 01:02:38;;;;;;;8.52;7.32;;;23.10;99.00;;;;;;4954037;28;20090;-88
2023/06/26 01:05:06;;;;;;;11.65;7.82;;;23.10;99.10;;;;;;4952017;28;20170;-89
2023/06/26 01:07:36;;;;;;;9.05;7.75;;;23.00;99.10;;;;;;4951305;28;20038;-87
2023/06/26 01:10:05;;;;;;;9.10;7.10;;;23.00;99.20;;;;;;4943239;28;20190;-88
2023/06/26 01:12:32;;;;;;;10.98;7.93;;;23.00;99.20;;;;;;4951424;28;20486;-88
2023/06/26 01:14:59;;;;;;;9.05;7.53;;;23.00;99.30;;;;;;4934230;28;20067;-88
2023/06/26 01:17:31;;;;;;;8.55;7.10;;;23.00;99.30;;;;;;4951483;28;20081;-88
2023/06/26 01:20:00;;;;;;;10.45;7.55;;;23.00;99.30;;;;;;4948859;28;20043;-87
2023/06/26 01:22:35;;;;;;;9.70;7.82;;;23.00;99.40;;;;;;4965046;28;20197;-87
2023/06/26 01:25:17;;;;;;;10.18;7.03;;;22.90;99.50;;;;;;4930199;28;20047;-88
2023/06/26 01:27:46;;;;;;;9.93;7.47;;;22.90;99.80;;;;;;4954880;28;20101;-88
2023/06/26 01:30:12;;;;;;;10.07;8.25;;;22.80;99.70;;;;;;4951384;28;20143;-88
2023/06/26 01:32:39;;;;;;;11.55;7.75;;;22.80;99.70;;;;;;4973274;28;20066;-88
2023/06/26 01:35:07;;;;;;;11.60;8.55;;;22.80;99.80;;;;;;4971855;28;20058;-87
2023/06/26 01:37:33;;;;;;;9.93;8.38;;;22.70;99.80;;;;;;4956149;28;20706;-87
2023/06/26 01:39:59;;;;;;;9.80;8.02;;;22.70;99.90;;;;;;4969798;28;20027;-87
2023/06/26 01:42:25;;;;;;;11.55;8.23;;;22.70;99.90;;;;;;4970562;28;20082;-88
2023/06/26 01:44:53;;;;;;;11.95;9.43;;;22.70;99.90;;;;;;4955651;28;20070;-85
2023/06/26 01:47:24;;;;;;;9.25;7.65;;;22.60;99.90;;;;;;4955955;28;20070;-88
2023/06/26 01:50:12;;;;;;;10.60;7.60;;;22.60;99.90;;;;;;4955889;28;20046;-88
2023/06/26 01:52:42;;;;;;;10.43;8.38;;;22.60;99.90;;;;;;4937000;29;20047;-88
2023/06/26 01:55:38;;;;;;;11.15;8.93;;;22.60;99.90;;;;;;4969634;28;20155;-88
2023/06/26 01:58:05;;;;;;;12.07;8.65;;;22.60;99.90;;;;;;4972330;28;20097;-88
2023/06/26 02:00:31;;;;;;;10.98;8.82;;;22.50;99.90;;;;;;4955219;28;20167;-86
2023/06/26 02:02:58;;;;;;;10.10;8.05;;;22.50;99.90;;;;;;4967898;28;20043;-88
2023/06/26 02:05:24;;;;;;;9.77;8.48;;;22.50;99.90;;;;;;4950332;28;20109;-87
2023/06/26 02:07:51;;;;;;;11.85;9.25;;;22.50;99.90;;;;;;4947301;28;20038;-88
2023/06/26 02:10:17;;;;;;;9.98;8.32;;;22.50;99.90;;;;;;4954618;28;20051;-87
2023/06/26 02:12:43;;;;;;;12.18;9.10;;;22.40;99.90;;;;;;4954779;28;20555;-87
2023/06/26 02:15:09;;;;;;;10.95;8.85;;;22.40;99.90;;;;;;4971119;28;20481;-88
2023/06/26 02:17:35;;;;;;;10.15;8.60;;;22.40;99.90;;;;;;4953250;28;20486;-88
2023/06/26 02:20:01;;;;;;;10.18;9.05;;;22.30;99.90;;;;;;4972939;28;20074;-88
2023/06/26 02:22:28;;;;;;;10.60;8.85;;;22.30;99.90;;;;;;4951625;28;20533;-88
2023/06/26 02:24:54;;;;;;;13.25;9.35;;;22.30;99.90;;;;;;4954642;28;20394;-86
2023/06/26 02:27:20;;;;;;;12.32;9.18;;;22.20;99.90;;;;;;4971860;28;20047;-88
2023/06/26 02:29:46;;;;;;;10.73;8.43;;;22.20;99.90;;;;;;4951647;28;20061;-88
2023/06/26 02:32:12;;;;;;;11.75;9.60;;;22.20;99.90;;;;;;4954777;28;20073;-88
2023/06/26 02:34:37;;;;;;;10.82;9.55;;;22.20;99.90;;;;;;4938289;28;20043;-87
2023/06/26 02:37:03;;;;;;;10.63;8.57;;;22.10;99.90;;;;;;4949458;28;20093;-88
2023/06/26 02:39:29;;;;;;;10.88;9.45;;;22.10;99.90;;;;;;4968586;28;20042;-88
2023/06/26 02:41:55;;;;;;;13.15;10.18;;;22.10;99.90;;;;;;4953316;28;20086;-89
2023/06/26 02:44:21;;;;;;;11.60;10.07;;;22.00;99.90;;;;;;4973047;28;20085;-88
2023/06/26 02:47:03;;;;;;;10.55;9.43;;;22.00;99.90;;;;;;4972149;28;20069;-89
2023/06/26 02:49:28;;;;;;;13.25;10.00;;;21.90;99.90;;;;;;4972121;28;20039;-88
2023/06/26 02:51:55;;;;;;;9.77;8.70;;;21.90;99.90;;;;;;4954314;28;20109;-88
2023/06/26 02:54:20;;;;;;;11.20;9.40;;;21.80;99.90;;;;;;4954207;28;20433;-89
2023/06/26 02:56:46;;;;;;;12.88;9.00;;;21.80;99.90;;;;;;4953484;28;20114;-88
2023/06/26 02:59:13;;;;;;;14.07;9.98;;;21.80;99.90;;;;;;4970685;28;20671;-87
2023/06/26 03:01:39;;;;;;;11.75;9.80;;;21.80;99.90;;;;;;4971231;28;20038;-87
2023/06/26 03:04:04;;;;;;;12.30;9.88;;;21.80;99.90;;;;;;4951545;28;20096;-89
2023/06/26 03:06:30;;;;;;;11.90;10.38;;;21.80;99.90;;;;;;4954987;28;20182;-88
2023/06/26 03:08:56;;;;;;;10.57;9.45;;;21.80;99.90;;;;;;4956358;28;20394;-88
2023/06/26 03:11:22;;;;;;;10.95;9.73;;;21.70;99.90;;;;;;4970075;28;20402;-88
2023/06/26 03:13:48;;;;;;;13.98;10.68;;;21.70;99.90;;;;;;4971127;28;20046;-89
2023/06/26 03:16:14;;;;;;;11.85;10.55;;;21.70;99.90;;;;;;4970887;28;20046;-86
2023/06/26 03:18:42;;;;;;;13.23;10.93;;;21.70;99.90;;;;;;4969416;28;20039;-88
2023/06/26 03:21:09;;;;;;;11.65;10.18;;;21.60;99.90;;;;;;4954407;28;20050;-88
2023/06/26 03:23:35;;;;;;;15.25;11.20;;;21.60;99.90;;;;;;4954663;28;20043;-88
2023/06/26 03:26:00;;;;;;;12.23;10.38;;;21.60;99.90;;;;;;4968979;28;20047;-88
2023/06/26 03:28:26;;;;;;;11.38;10.15;;;21.50;99.90;;;;;;4965158;28;20035;-87
2023/06/26 03:30:52;;;;;;;12.20;10.63;;;21.50;99.90;;;;;;4967907;28;20035;-88
2023/06/26 03:33:18;;;;;;;13.00;11.15;;;21.50;99.90;;;;;;4963693;28;20042;-88
2023/06/26 03:35:44;;;;;;;13.73;10.88;;;21.50;99.90;;;;;;4967210;28;20051;-88
2023/06/26 03:38:10;;;;;;;13.40;10.32;;;21.50;99.90;;;;;;4969096;28;20042;-88
2023/06/26 03:40:38;;;;;;;12.45;11.15;;;21.50;99.90;;;;;;4963060;28;20042;-88
2023/06/26 03:43:06;;;;;;;12.77;9.95;;;21.40;99.90;;;;;;4950528;28;20039;-88
2023/06/26 03:45:32;;;;;;;10.80;9.43;;;21.50;99.90;;;;;;4953315;28;20085;-88
2023/06/26 03:47:58;;;;;;;12.77;10.57;;;21.50;99.90;;;;;;4952212;28;20457;-88
2023/06/26 03:50:23;;;;;;;13.43;10.85;;;21.50;99.90;;;;;;4952082;28;20129;-88
2023/06/26 03:52:50;;;;;;;13.52;11.95;;;21.50;99.90;;;;;;4969484;28;20046;-88
2023/06/26 03:55:17;;;;;;;13.38;10.77;;;21.60;99.90;;;;;;4952728;28;20114;-89
2023/06/26 03:57:43;;;;;;;13.40;11.25;;;21.60;99.90;;;;;;4969651;28;20074;-88
2023/06/26 04:00:12;;;;;;;12.10;10.00;;;21.60;99.90;;;;;;4928413;28;20031;-88
2023/06/26 04:02:38;;;;;;;12.73;10.32;;;21.60;99.90;;;;;;4946984;28;20124;-88
2023/06/26 04:05:04;;;;;;;12.85;10.63;;;21.60;99.90;;;;;;4948469;28;20039;-88
2023/06/26 04:07:31;;;;;;;12.52;10.57;;;21.70;99.90;;;;;;4966886;28;20486;-88
2023/06/26 04:09:57;;;;;;;12.02;9.80;;;21.70;99.90;;;;;;4951889;28;20046;-89
2023/06/26 04:12:23;;;;;;;12.15;10.32;;;21.60;99.90;;;;;;4944077;28;20098;-88
2023/06/26 04:14:49;;;;;;;12.68;9.85;;;21.70;99.90;;;;;;4952641;28;20494;-88
2023/06/26 04:17:15;;;;;;;10.77;9.38;;;21.70;99.90;;;;;;4952646;28;20473;-88
2023/06/26 04:19:40;;;;;;;13.55;10.10;;;21.70;99.90;;;;;;4962095;28;20047;-88
2023/06/26 04:22:07;;;;;;;12.80;9.82;;;21.70;99.90;;;;;;4967507;28;20042;-88
2023/06/26 04:24:33;;;;;;;11.98;10.00;;;21.60;99.90;;;;;;4967776;28;20042;-88
2023/06/26 04:26:58;;;;;;;11.23;9.50;;;21.60;99.90;;;;;;4952321;28;20065;-86
2023/06/26 04:29:26;;;;;;;12.70;9.90;;;21.60;99.90;;;;;;4936181;28;20047;-88
2023/06/26 04:31:57;;;;;;;11.23;9.43;;;21.60;99.90;;;;;;4966598;28;20030;-88
2023/06/26 04:34:25;;;;;;;12.30;10.00;;;21.60;99.90;;;;;;4931676;28;20094;-88
2023/06/26 04:36:51;;;;;;;11.02;9.35;;;21.60;99.90;;;;;;4948959;28;20391;-88
2023/06/26 04:39:17;;;;;;;13.10;9.05;;;21.70;99.90;;;;;;4950403;28;20038;-88
2023/06/26 04:41:44;;;;;;;13.40;9.50;;;21.70;99.90;;;;;;4951994;28;20085;-88
2023/06/26 04:44:10;;;;;;;12.05;9.43;;;21.70;99.90;;;;;;4969840;28;20140;-87
2023/06/26 04:46:40;;;;;;;10.98;8.70;;;21.70;99.90;;;;;;4950106;28;20590;-88
2023/06/26 04:49:10;;;;;;;13.27;8.90;;;21.80;99.90;;;;;;4948779;28;20066;-88
2023/06/26 04:51:40;;;;;;;10.57;8.55;;;21.80;99.90;;;;;;4961356;28;20047;-86
2023/06/26 04:54:11;;;;;;;10.30;8.30;;;21.90;99.90;;;;;;4966998;28;20486;-88
2023/06/26 04:56:37;;;;;;;11.30;7.45;;;21.90;99.90;;;;;;4966182;28;20046;-88
2023/06/26 04:59:03;;;;;;;11.65;7.57;;;21.90;99.90;;;;;;4970801;28;20045;-87
2023/06/26 05:01:32;;;;;;;10.65;8.13;;;22.10;99.90;;;;;;4952561;28;20398;-88
2023/06/26 05:04:00;;;;;;;13.27;7.75;;;22.00;99.90;;;;;;4970117;28;20038;-88
2023/06/26 05:06:26;;;;;;;13.63;7.53;;;22.00;99.90;;;;;;4972874;28;20047;-87
2023/06/26 05:08:52;;;;;;;12.35;8.10;;;22.10;99.90;;;;;;4967887;28;20089;-90
2023/06/26 05:11:18;;;;;;;11.75;8.02;;;22.10;99.90;;;;;;4971063;28;20409;-90
2023/06/26 05:13:43;;;;;;;12.40;7.40;;;22.10;99.90;;;;;;4957264;28;20046;-89
2023/06/26 05:16:09;;;;;;;15.30;7.72;;;22.00;99.90;;;;;;4957018;28;20054;-93
2023/06/26 05:18:36;;;;;;;14.70;7.95;;;22.10;99.90;;;;;;4955631;28;20051;-92
2023/06/26 05:21:02;;;;;;;12.30;7.60;;;22.00;99.90;;;;;;4969169;28;20038;-90
2023/06/26 05:23:31;;;;;;;12.65;8.13;;;22.00;99.90;;;;;;4968231;28;20101;-89
2023/06/26 05:25:57;;;;;;;13.00;8.30;;;22.00;99.90;;;;;;4964161;28;21199;-89
2023/06/26 05:28:24;;;;;;;13.13;8.07;;;22.00;99.90;;;;;;4949578;28;20487;-84
2023/06/26 05:30:51;;;;;;;14.30;8.23;;;22.00;99.90;;;;;;4968135;28;20042;-87
2023/06/26 05:33:19;;;;;;;13.68;8.32;;;22.10;99.90;;;;;;4969032;28;20048;-87
2023/06/26 05:35:45;;;;;;;18.13;7.95;;;22.10;99.90;;;;;;4970240;28;20105;-88
2023/06/26 05:38:13;;;;;;;13.85;7.85;;;22.10;99.90;;;;;;4952364;28;20059;-88
2023/06/26 05:40:40;;;;;;;20.15;8.68;;;22.10;99.90;;;;;;4953214;28;20078;-90
2023/06/26 05:43:09;;;;;;;17.88;9.10;;;22.10;99.90;;;;;;4956708;28;20046;-93
2023/06/26 05:45:37;;;;;;;15.02;8.70;;;22.10;99.90;;;;;;4956838;28;20089;-93
2023/06/26 05:48:03;;;;;;;16.95;9.25;;;21.90;99.90;;;;;;4951716;28;20039;-89
2023/06/26 05:50:29;;;;;;;15.45;8.07;;;21.80;99.90;;;;;;4970106;28;20132;-87
2023/06/26 05:52:55;;;;;;;16.15;8.90;;;21.80;99.90;;;;;;4936214;28;20081;-90
2023/06/26 05:55:21;;;;;;;14.82;8.65;;;21.80;99.90;;;;;;4934836;28;20498;-89
2023/06/26 05:57:47;;;;;;;17.15;8.45;;;21.70;99.90;;;;;;4922678;28;20398;-92
2023/06/26 06:00:14;;;;;;;12.93;8.10;;;21.70;99.90;;;;;;4970409;28;20066;-93
2023/06/26 06:02:41;;;;;;;19.17;7.40;;;21.70;99.90;;;;;;4951115;28;20034;-93
2023/06/26 06:05:07;;;;;;;13.48;6.50;;;21.70;99.90;;;;;;4952983;28;20049;-93
2023/06/26 06:07:34;;;;;;;14.18;6.60;;;21.60;99.90;;;;;;4953129;28;20489;-90
2023/06/26 06:10:01;;;;;;;11.82;6.32;;;21.60;99.90;;;;;;4969529;28;20034;-91
2023/06/26 06:12:27;;;;;;;16.55;6.82;;;21.60;99.90;;;;;;4957298;28;20042;-92
2023/06/26 06:14:53;;;;;;;11.50;5.90;;;21.60;99.90;;;;;;4956413;28;20051;-93
2023/06/26 06:17:20;;;;;;;14.60;5.75;;;21.60;99.90;;;;;;4940617;28;20042;-92
2023/06/26 06:19:46;;;;;;;14.98;6.05;;;21.60;99.90;;;;;;4938891;28;20046;-89
2023/06/26 06:22:11;;;;;;;12.45;5.13;;;21.50;99.90;;;;;;4972458;28;20039;-87
2023/06/26 06:24:37;;;;;;;10.25;4.60;;;21.50;99.90;;;;;;4967424;28;20039;-87
2023/06/26 06:27:03;;;;;;;14.07;4.63;;;21.50;99.90;;;;;;4970532;28;20648;-87
2023/06/26 06:29:29;;;;;;;10.55;4.13;;;21.50;99.90;;;;;;4953779;28;20039;-87
2023/06/26 06:31:54;;;;;;;13.50;4.10;;;21.50;99.90;;;;;;4966238;28;20499;-89
2023/06/26 06:34:20;;;;;;;15.38;5.00;;;21.50;99.90;;;;;;4938103;28;20418;-89
2023/06/26 06:36:46;;;;;;;10.18;3.88;;;21.50;99.90;;;;;;4967062;28;20126;-89
2023/06/26 06:39:13;;;;;;;10.48;3.53;;;21.50;99.90;;;;;;4952942;28;20039;-91
2023/06/26 06:41:39;;;;;;;8.85;3.63;;;21.50;99.90;;;;;;4968419;28;20035;-89
2023/06/26 06:44:05;;;;;;;10.90;3.15;;;21.50;99.90;;;;;;4968437;28;20038;-91
2023/06/26 06:46:31;;;;;;;10.82;3.72;;;21.40;99.90;;;;;;4954259;28;20043;-90
2023/06/26 06:48:57;;;;;;;15.95;3.92;;;21.40;99.90;;;;;;4949792;28;20103;-93
2023/06/26 06:51:23;;;;;;;10.80;3.67;;;21.40;99.90;;;;;;4952130;28;20054;-90
2023/06/26 06:53:49;;;;;;;7.63;3.47;;;21.40;99.90;;;;;;4948883;28;20449;-87
2023/06/26 06:56:14;;;;;;;11.02;2.90;;;21.50;99.90;;;;;;4969397;28;20070;-88
2023/06/26 06:58:42;;;;;;;10.38;3.67;;;21.60;99.90;;;;;;4969578;28;20529;-88
2023/06/26 07:01:11;;;;;;;9.27;3.17;;;21.70;99.90;;;;;;4952863;28;20155;-89
2023/06/26 07:03:37;;;;;;;11.65;2.78;;;21.70;99.90;;;;;;4948853;28;20494;-89
2023/06/26 07:06:06;;;;;;;7.13;2.47;;;21.80;99.90;;;;;;4947001;28;20047;-89
2023/06/26 07:08:31;;;;;;;10.77;3.20;;;21.90;99.90;;;;;;4953002;28;20058;-89
2023/06/26 07:10:58;;;;;;;9.38;2.70;;;22.00;99.90;;;;;;4966017;28;20038;-87
2023/06/26 07:13:24;;;;;;;7.93;2.35;;;22.10;99.90;;;;;;4953364;28;20545;-88
2023/06/26 07:15:50;;;;;;;11.98;3.28;;;22.20;99.90;;;;;;4947704;28;20051;-90
2023/06/26 07:18:16;;;;;;;9.38;2.45;;;22.40;99.90;;;;;;4950611;28;20419;-92
2023/06/26 07:20:42;;;;;;;10.88;2.40;;;22.70;99.90;;;;;;4949700;28;20051;-88
2023/06/26 07:23:08;;;;;;;8.55;2.28;;;22.90;99.90;;;;;;4964528;28;20122;-89
2023/06/26 07:25:33;;;;;;;13.02;2.35;;;23.10;99.90;;;;;;4947055;28;20105;-89
2023/06/26 07:28:00;;;;;;;7.57;2.10;;;23.20;99.90;;;;;;4940087;28;20042;-89
2023/06/26 07:30:26;;;;;;;7.28;1.70;;;23.20;99.90;;;;;;4971111;28;20038;-90
2023/06/26 07:32:51;;;;;;;11.20;2.13;;;23.20;99.90;;;;;;4978624;28;20070;-96
2023/06/26 07:50:31;;;;;;;9.55;2.28;;;23.40;99.90;;;;;;3307663;26;20071;-90
2023/06/26 07:52:59;;;;;;;6.70;1.80;;;23.40;99.90;;;;;;4948119;29;20074;-89
2023/06/26 07:55:26;;;;;;;7.63;2.15;;;23.50;99.90;;;;;;4938725;29;20082;-90
2023/06/26 07:57:52;;;;;;;7.55;1.92;;;23.60;99.90;;;;;;4966250;28;20039;-91
2023/06/26 08:00:18;;;;;;;6.72;1.80;;;23.90;99.60;;;;;;4973248;29;20050;-89
2023/06/26 08:02:43;;;;;;;5.95;1.80;;;23.90;99.40;;;;;;4950661;29;20508;-88
2023/06/26 08:05:09;;;;;;;6.63;1.98;;;24.00;99.30;;;;;;4962472;29;20071;-88
2023/06/26 08:07:34;;;;;;;11.35;2.20;;;24.10;99.10;;;;;;4948735;29;20080;-87
2023/06/26 08:10:00;;;;;;;7.68;1.73;;;24.00;99.00;;;;;;4963196;29;20129;-87
2023/06/26 08:12:26;;;;;;;7.97;1.52;;;23.90;98.80;;;;;;4949473;29;20056;-88
2023/06/26 08:14:51;;;;;;;8.63;1.85;;;23.70;98.90;;;;;;4967159;29;20034;-87
2023/06/26 08:17:17;;;;;;;6.97;1.30;;;23.70;99.20;;;;;;4943286;29;20063;-88
2023/06/26 08:19:43;;;;;;;7.00;1.60;;;23.70;99.10;;;;;;4965010;28;20067;-88
2023/06/26 08:22:08;;;;;;;7.43;1.63;;;23.70;99.10;;;;;;4952596;29;20328;-88
2023/06/26 08:24:35;;;;;;;5.78;1.45;;;23.60;98.90;;;;;;4948526;28;20146;-88
2023/06/26 08:27:00;;;;;;;6.07;1.40;;;23.50;99.00;;;;;;4933735;29;20055;-89
2023/06/26 08:29:26;;;;;;;5.85;1.50;;;23.50;98.90;;;;;;4927734;29;20036;-89
2023/06/26 08:31:53;;;;;;;9.38;1.48;;;23.50;99.10;;;;;;4944332;28;20071;-86
2023/06/26 08:34:18;;;;;;;5.45;1.10;;;23.60;99.10;;;;;;4924305;29;20048;-93
2023/06/26 08:36:44;;;;;;;5.97;1.60;;;23.70;99.00;;;;;;4929345;29;20054;-86
2023/06/26 08:39:10;;;;;;;5.75;1.77;;;23.90;98.80;;;;;;4945899;29;20094;-92
2023/06/26 08:41:36;;;;;;;4.70;1.75;;;24.00;98.60;;;;;;4943267;29;20388;-92
2023/06/26 08:44:04;;;;;;;8.52;2.17;;;23.90;98.70;;;;;;4952465;28;20101;-92
2023/06/26 08:46:31;;;;;;;4.35;1.30;;;23.90;98.80;;;;;;4932538;29;20058;-88
2023/06/26 08:49:01;;;;;;;4.88;1.38;;;24.00;98.70;;;;;;4929635;29;20047;-89
2023/06/26 08:51:29;;;;;;;8.35;1.75;;;24.10;98.10;;;;;;4945601;29;20043;-87
2023/06/26 08:54:00;;;;;;;4.97;1.40;;;24.10;98.20;;;;;;4933030;29;20490;-90
2023/06/26 08:56:40;;;;;;;8.38;1.70;;;24.00;98.00;;;;;;4932578;28;20059;-91
2023/06/26 08:59:07;;;;;;;5.65;1.80;;;23.90;98.30;;;;;;4925984;29;20460;-90
2023/06/26 09:01:33;;;;;;;3.78;1.30;;;24.00;98.50;;;;;;4928071;29;20083;-90
2023/06/26 09:03:58;;;;;;;6.93;1.65;;;24.10;98.30;;;;;;4927279;29;20098;-90
2023/06/26 09:06:24;;;;;;;6.07;1.52;;;24.10;98.20;;;;;;4935753;29;20071;-91
2023/06/26 09:08:50;;;;;;;5.05;1.20;;;24.00;98.20;;;;;;4935355;29;20075;-90
2023/06/26 09:11:16;;;;;;;4.93;1.40;;;23.90;98.40;;;;;;4931291;29;20052;-90
2023/06/26 09:13:43;;;;;;;4.03;2.13;;;24.00;98.20;;;;;;4952279;28;20071;-89
2023/06/26 09:16:09;;;;;;;5.28;1.80;;;24.20;98.40;;;;;;4946830;29;20043;-90
2023/06/26 09:18:35;;;;;;;7.32;1.80;;;24.40;98.00;;;;;;4949486;29;20094;-89
2023/06/26 09:21:07;;;;;;;5.60;1.70;;;24.60;97.70;;;;;;4932565;29;20047;-91
2023/06/26 09:23:33;;;;;;;5.45;1.58;;;24.70;97.50;;;;;;4933394;29;20047;-91
2023/06/26 09:25:59;;;;;;;6.13;2.00;;;24.60;97.60;;;;;;4931269;29;20047;-89
2023/06/26 09:28:24;;;;;;;10.65;2.05;;;24.60;97.80;;;;;;4952103;29;20501;-90
2023/06/26 09:30:51;;;;;;;6.32;1.77;;;24.60;97.90;;;;;;4933124;29;20055;-90
2023/06/26 09:33:19;;;;;;;10.38;1.88;;;24.60;97.40;;;;;;4953421;29;20118;-90
2023/06/26 09:35:46;;;;;;;5.22;1.50;;;24.60;96.90;;;;;;4919310;28;20043;-90
2023/06/26 09:38:13;;;;;;;4.63;1.63;;;24.60;96.90;;;;;;4953238;29;20071;-90
2023/06/26 09:40:39;;;;;;;5.40;1.50;;;24.60;96.80;;;;;;4951734;29;20287;-90
2023/06/26 09:43:05;;;;;;;3.28;1.55;;;24.70;96.90;;;;;;4949090;29;20114;-87
2023/06/26 09:45:32;;;;;;;6.38;1.77;;;24.70;96.80;;;;;;4929381;29;20036;-90
2023/06/26 09:48:02;;;;;;;4.55;1.38;;;24.70;96.60;;;;;;4946510;29;20353;-90
2023/06/26 09:50:29;;;;;;;5.68;1.73;;;24.90;96.40;;;;;;4928626;28;20059;-90
2023/06/26 09:52:55;;;;;;;5.68;1.90;;;24.90;96.30;;;;;;4938460;29;20101;-91
2023/06/26 09:55:23;;;;;;;5.00;1.70;;;24.90;96.40;;;;;;4936701;29;20063;-89
2023/06/26 09:57:56;;;;;;;5.05;1.60;;;24.70;96.60;;;;;;4949019;29;20057;-89
2023/06/26 10:00:22;;;;;;;4.13;1.52;;;24.70;96.60;;;;;;4946911;29;20099;-90
2023/06/26 10:02:47;;;;;;;7.80;1.90;;;24.70;96.50;;;;;;4952836;28;20035;-91
2023/06/26 10:05:13;;;;;;;7.07;2.20;;;24.70;96.00;;;;;;4938025;28;20051;-91
2023/06/26 10:07:39;;;;;;;5.82;1.55;;;24.50;96.10;;;;;;4934959;29;20047;-90
2023/06/26 10:10:07;;;;;;;8.35;2.25;;;24.40;96.40;;;;;;4935924;29;20035;-90
2023/06/26 10:12:34;;;;;;;5.78;1.90;;;24.30;96.50;;;;;;4955121;29;20115;-90
2023/06/26 10:15:03;;;;;;;6.82;2.30;;;24.30;96.90;;;;;;4938929;29;20050;-92
2023/06/26 10:17:32;;;;;;;5.70;1.98;;;24.40;96.60;;;;;;4934429;29;20047;-93
2023/06/26 10:20:02;;;;;;;6.10;1.98;;;24.60;95.90;;;;;;4932656;29;20039;-94
2023/06/26 10:22:31;;;;;;;6.70;2.10;;;24.60;96.10;;;;;;4945923;29;20043;-93
2023/06/26 10:25:00;;;;;;;6.45;2.45;;;24.70;96.00;;;;;;4950431;28;20047;-92
2023/06/26 10:27:35;;;;;;;5.72;1.85;;;24.70;95.80;;;;;;4938007;29;20044;-90
2023/06/26 10:30:04;;;;;;;6.78;2.20;;;24.80;95.80;;;;;;4955362;28;20043;-91
2023/06/26 10:32:31;;;;;;;6.72;1.75;;;24.70;95.70;;;;;;4952854;29;20047;-93
2023/06/26 10:34:57;;;;;;;6.07;2.40;;;24.90;96.10;;;;;;4929385;29;20051;-93
2023/06/26 10:37:44;;;;;;;4.72;1.90;;;25.00;96.00;;;;;;4932635;29;20127;-90
2023/06/26 10:40:11;;;;;;;5.82;2.30;;;25.30;95.50;;;;;;4945309;29;20552;-91
2023/06/26 10:42:39;;;;;;;5.68;1.80;;;25.40;95.50;;;;;;4952591;29;20116;-90
2023/06/26 10:45:14;;;;;;;4.22;2.03;;;25.50;94.70;;;;;;4932669;29;20043;-90
2023/06/26 10:47:41;;;;;;;4.43;1.88;;;25.50;94.00;;;;;;4950883;29;20040;-90
2023/06/26 10:50:22;;;;;;;4.03;1.70;;;25.30;94.40;;;;;;4934599;29;20074;-90
2023/06/26 10:53:26;;;;;;;6.25;1.88;;;25.20;94.20;;;;;;4948862;29;20031;-87
2023/06/26 10:55:58;;;;;;;4.55;1.70;;;25.00;92.90;;;;;;4933093;28;20478;-94
2023/06/26 10:58:34;;;;;;;3.90;1.63;;;25.00;93.90;;;;;;4950663;29;20046;-92
2023/06/26 11:01:15;;;;;;;5.75;2.10;;;25.20;94.10;;;;;;4930145;29;20554;-93
2023/06/26 11:04:06;;;;;;;5.45;2.08;;;25.20;93.40;;;;;;4930806;29;20043;-91
2023/06/26 11:06:34;;;;;;;4.95;1.90;;;25.30;93.80;;;;;;4931111;29;20674;-93
2023/06/26 11:09:10;;;;;;;5.05;1.77;;;25.40;93.70;;;;;;4931634;29;20054;-92
2023/06/26 11:11:51;;;;;;;4.13;1.63;;;25.50;93.60;;;;;;4953461;28;20062;-93
2023/06/26 11:14:22;;;;;;;9.18;1.95;;;25.50;93.80;;;;;;4949734;29;20042;-93
2023/06/26 11:16:49;;;;;;;6.20;1.67;;;25.40;94.20;;;;;;4934039;29;20126;-93
2023/06/26 11:19:19;;;;;;;7.20;1.92;;;25.50;93.30;;;;;;4949596;29;20598;-93
2023/06/26 11:21:46;;;;;;;5.90;1.95;;;25.50;93.10;;;;;;4946718;29;20043;-94
2023/06/26 11:24:12;;;;;;;5.30;1.60;;;25.30;93.40;;;;;;4936946;29;20130;-93
2023/06/26 11:26:42;;;;;;;6.97;1.48;;;25.30;93.60;;;;;;4954310;29;20040;-94
2023/06/26 11:29:09;;;;;;;5.75;1.65;;;25.40;94.00;;;;;;4950024;29;20039;-92
2023/06/26 11:31:39;;;;;;;5.22;1.60;;;25.60;93.70;;;;;;4953333;29;20442;-93
2023/06/26 11:34:11;;;;;;;9.07;1.70;;;25.80;93.50;;;;;;4948557;28;20031;-93
2023/06/26 11:36:38;;;;;;;6.40;1.55;;;25.90;93.20;;;;;;4935379;29;20083;-93
2023/06/26 11:39:07;;;;;;;6.70;1.45;;;25.90;93.20;;;;;;4933887;29;20048;-93
2023/06/26 11:41:34;;;;;;;6.20;1.70;;;25.90;92.60;;;;;;4931233;29;20054;-92
2023/06/26 11:44:05;;;;;;;7.95;1.77;;;25.80;92.80;;;;;;4951181;28;20482;-93
2023/06/26 11:46:31;;;;;;;5.95;1.67;;;25.70;93.20;;;;;;4931142;29;20051;-93
2023/06/26 11:48:56;;;;;;;5.88;1.27;;;25.70;92.60;;;;;;4951691;29;20357;-92
2023/06/26 11:51:22;;;;;;;7.85;1.52;;;25.70;93.00;;;;;;4952917;29;20498;-93
2023/06/26 11:53:50;;;;;;;8.60;1.63;;;25.80;92.90;;;;;;4925825;29;20118;-93
2023/06/26 11:56:17;;;;;;;5.85;1.50;;;26.00;93.00;;;;;;4933837;29;20063;-93
2023/06/26 11:59:03;;;;;;;5.03;1.45;;;26.10;93.30;;;;;;4936761;29;20498;-91
2023/06/26 12:01:35;;;;;;;3.03;1.00;;;26.20;93.20;;;;;;4952972;28;20055;-92
2023/06/26 12:04:07;;;;;;;4.85;1.05;;;26.20;93.10;;;;;;4952113;29;20039;-93
2023/06/26 12:06:41;;;;;;;5.43;1.40;;;26.10;92.60;;;;;;4930766;29;20378;-91
2023/06/26 12:09:09;;;;;;;5.55;1.00;;;26.00;92.40;;;;;;4945707;28;20098;-92
2023/06/26 12:11:36;;;;;;;5.35;1.10;;;25.90;92.90;;;;;;4954026;29;20114;-93
2023/06/26 12:14:03;;;;;;;4.85;1.50;;;25.80;92.40;;;;;;4945081;28;20040;-91
2023/06/26 12:16:30;;;;;;;3.72;1.15;;;25.80;93.00;;;;;;4953366;29;20043;-92
2023/06/26 12:18:59;;;;;;;8.93;1.38;;;25.80;92.00;;;;;;4950087;28;20051;-91
2023/06/26 12:21:41;;;;;;;5.70;1.38;;;25.90;91.90;;;;;;4951477;28;20134;-90
2023/06/26 12:24:18;;;;;;;5.55;1.17;;;25.80;92.20;;;;;;4947317;28;20261;-90
2023/06/26 12:26:51;;;;;;;3.13;0.90;;;25.80;92.60;;;;;;4923370;29;20048;-91
2023/06/26 12:29:18;;;;;;;7.07;0.83;;;25.70;91.80;;;;;;4933141;29;20047;-91
2023/06/26 12:31:48;;;;;;;3.60;1.17;;;25.80;92.00;;;;;;4921556;29;20142;-90
2023/06/26 12:34:17;;;;;;;6.82;1.27;;;25.90;91.90;;;;;;4949137;29;20058;-92
2023/06/26 12:36:50;;;;;;;5.40;1.40;;;25.90;92.00;;;;;;4940676;29;20121;-92
2023/06/26 12:39:18;;;;;;;5.03;1.23;;;25.90;92.30;;;;;;4933761;29;20126;-92
2023/06/26 12:41:54;;;;;;;4.35;1.13;;;26.00;92.20;;;;;;4935683;29;20533;-91
2023/06/26 12:44:30;;;;;;;6.65;1.33;;;26.10;92.40;;;;;;4931403;29;20050;-91
2023/06/26 12:47:01;;;;;;;2.85;0.88;;;26.10;91.70;;;;;;4930258;29;20048;-93
2023/06/26 12:49:37;;;;;;;6.28;1.25;;;26.00;91.80;;;;;;4931689;29;20398;-91
2023/06/26 12:52:11;;;;;;;8.93;1.05;;;25.90;91.90;;;;;;4915059;29;20047;-91
2023/06/26 12:54:39;;;;;;;7.07;1.25;;;25.80;91.30;;;;;;4952997;28;20035;-91
2023/06/26 12:57:06;;;;;;;4.65;1.00;;;25.90;91.90;;;;;;4945553;29;20042;-91
2023/06/26 12:59:32;;;;;;;5.30;1.15;;;25.90;91.50;;;;;;4937864;29;20074;-90